sensor_id;sensor_type;location;lat;lon;timestamp;temperature;humidity
44431;DHT22;30135;47.866;-4.222;2023-04-03T00:01:18;11.60;83.80
44431;DHT22;30135;47.866;-4.222;2023-04-03T00:03:45;11.60;83.80
44431;DHT22;30135;47.866;-4.222;2023-04-03T00:06:12;11.60;83.80
44431;DHT22;30135;47.866;-4.222;2023-04-03T00:08:39;11.60;83.80
44431;DHT22;30135;47.866;-4.222;2023-04-03T00:11:05;11.60;83.90
44431;DHT22;30135;47.866;-4.222;2023-04-03T00:13:32;11.60;83.90
44431;DHT22;30135;47.866;-4.222;2023-04-03T00:15:59;11.60;83.90
44431;DHT22;30135;47.866;-4.222;2023-04-03T00:18:26;11.60;83.90
44431;DHT22;30135;47.866;-4.222;2023-04-03T00:20:52;11.60;83.90
44431;DHT22;30135;47.866;-4.222;2023-04-03T00:23:18;11.60;83.90
44431;DHT22;30135;47.866;-4.222;2023-04-03T00:25:44;11.60;83.90
44431;DHT22;30135;47.866;-4.222;2023-04-03T00:28:10;11.60;83.90
44431;DHT22;30135;47.866;-4.222;2023-04-03T00:30:36;11.60;83.90
44431;DHT22;30135;47.866;-4.222;2023-04-03T00:33:02;11.60;83.90
44431;DHT22;30135;47.866;-4.222;2023-04-03T00:35:28;11.60;83.80
44431;DHT22;30135;47.866;-4.222;2023-04-03T00:37:55;11.60;83.80
44431;DHT22;30135;47.866;-4.222;2023-04-03T00:40:24;11.50;83.60
44431;DHT22;30135;47.866;-4.222;2023-04-03T00:42:56;11.60;83.70
44431;DHT22;30135;47.866;-4.222;2023-04-03T00:48:01;11.50;83.20
44431;DHT22;30135;47.866;-4.222;2023-04-03T00:50:34;11.50;83.10
44431;DHT22;30135;47.866;-4.222;2023-04-03T00:53:04;11.50;82.90
44431;DHT22;30135;47.866;-4.222;2023-04-03T00:55:31;11.50;82.70
44431;DHT22;30135;47.866;-4.222;2023-04-03T00:57:58;11.50;82.80
44431;DHT22;30135;47.866;-4.222;2023-04-03T01:00:26;11.40;82.70
44431;DHT22;30135;47.866;-4.222;2023-04-03T01:02:52;11.40;82.50
44431;DHT22;30135;47.866;-4.222;2023-04-03T01:05:19;11.40;82.40
44431;DHT22;30135;47.866;-4.222;2023-04-03T01:07:46;11.40;82.40
44431;DHT22;30135;47.866;-4.222;2023-04-03T01:10:15;11.40;82.10
44431;DHT22;30135;47.866;-4.222;2023-04-03T01:12:44;11.40;82.10
44431;DHT22;30135;47.866;-4.222;2023-04-03T01:15:18;11.40;82.10
44431;DHT22;30135;47.866;-4.222;2023-04-03T01:17:48;11.40;82.10
44431;DHT22;30135;47.866;-4.222;2023-04-03T01:25:39;11.30;81.60
44431;DHT22;30135;47.866;-4.222;2023-04-03T01:28:15;11.30;81.60
44431;DHT22;30135;47.866;-4.222;2023-04-03T01:31:20;11.30;81.70
44431;DHT22;30135;47.866;-4.222;2023-04-03T01:33:50;11.30;81.70
44431;DHT22;30135;47.866;-4.222;2023-04-03T01:36:26;11.30;81.70
44431;DHT22;30135;47.866;-4.222;2023-04-03T01:38:54;11.30;81.60
44431;DHT22;30135;47.866;-4.222;2023-04-03T01:41:20;11.30;81.70
44431;DHT22;30135;47.866;-4.222;2023-04-03T01:43:47;11.30;81.70
44431;DHT22;30135;47.866;-4.222;2023-04-03T01:46:18;11.30;81.60
44431;DHT22;30135;47.866;-4.222;2023-04-03T01:48:45;11.30;81.70
44431;DHT22;30135;47.866;-4.222;2023-04-03T01:51:11;11.30;81.50
44431;DHT22;30135;47.866;-4.222;2023-04-03T01:53:38;11.30;81.50
44431;DHT22;30135;47.866;-4.222;2023-04-03T01:56:04;11.30;81.50
44431;DHT22;30135;47.866;-4.222;2023-04-03T01:58:31;11.30;81.50
44431;DHT22;30135;47.866;-4.222;2023-04-03T02:00:57;11.30;81.40
44431;DHT22;30135;47.866;-4.222;2023-04-03T02:03:23;11.20;81.30
44431;DHT22;30135;47.866;-4.222;2023-04-03T02:05:49;11.30;81.40
44431;DHT22;30135;47.866;-4.222;2023-04-03T02:08:16;11.30;81.40
44431;DHT22;30135;47.866;-4.222;2023-04-03T02:10:44;11.30;81.40
44431;DHT22;30135;47.866;-4.222;2023-04-03T02:13:12;11.20;81.20
44431;DHT22;30135;47.866;-4.222;2023-04-03T02:15:41;11.20;81.20
44431;DHT22;30135;47.866;-4.222;2023-04-03T02:18:07;11.20;81.10
44431;DHT22;30135;47.866;-4.222;2023-04-03T02:20:34;11.20;82.00
44431;DHT22;30135;47.866;-4.222;2023-04-03T02:23:00;11.20;81.10
44431;DHT22;30135;47.866;-4.222;2023-04-03T02:25:26;11.20;81.10
44431;DHT22;30135;47.866;-4.222;2023-04-03T02:27:52;11.20;81.00
44431;DHT22;30135;47.866;-4.222;2023-04-03T02:30:19;11.20;81.10
44431;DHT22;30135;47.866;-4.222;2023-04-03T02:32:44;11.20;81.00
44431;DHT22;30135;47.866;-4.222;2023-04-03T02:35:11;11.20;80.80
44431;DHT22;30135;47.866;-4.222;2023-04-03T02:37:37;11.10;80.20
44431;DHT22;30135;47.866;-4.222;2023-04-03T02:40:05;11.10;81.30
44431;DHT22;30135;47.866;-4.222;2023-04-03T02:42:31;11.10;80.60
44431;DHT22;30135;47.866;-4.222;2023-04-03T02:44:57;11.10;80.60
44431;DHT22;30135;47.866;-4.222;2023-04-03T02:47:23;11.10;80.40
44431;DHT22;30135;47.866;-4.222;2023-04-03T02:49:49;11.10;80.10
44431;DHT22;30135;47.866;-4.222;2023-04-03T02:52:16;11.10;79.90
44431;DHT22;30135;47.866;-4.222;2023-04-03T02:54:42;11.00;79.60
44431;DHT22;30135;47.866;-4.222;2023-04-03T02:57:08;11.00;79.60
44431;DHT22;30135;47.866;-4.222;2023-04-03T02:59:37;11.00;79.60
44431;DHT22;30135;47.866;-4.222;2023-04-03T03:02:07;11.00;79.60
44431;DHT22;30135;47.866;-4.222;2023-04-03T03:04:34;10.90;80.30
44431;DHT22;30135;47.866;-4.222;2023-04-03T03:07:01;10.90;79.40
44431;DHT22;30135;47.866;-4.222;2023-04-03T03:09:27;10.90;79.30
44431;DHT22;30135;47.866;-4.222;2023-04-03T03:11:56;10.90;79.40
44431;DHT22;30135;47.866;-4.222;2023-04-03T03:14:23;10.90;79.30
44431;DHT22;30135;47.866;-4.222;2023-04-03T03:16:49;10.90;79.40
44431;DHT22;30135;47.866;-4.222;2023-04-03T03:19:15;10.90;79.10
44431;DHT22;30135;47.866;-4.222;2023-04-03T03:21:41;10.90;79.00
44431;DHT22;30135;47.866;-4.222;2023-04-03T03:24:07;10.90;79.10
44431;DHT22;30135;47.866;-4.222;2023-04-03T03:26:34;10.90;79.00
44431;DHT22;30135;47.866;-4.222;2023-04-03T03:29:00;10.80;79.00
44431;DHT22;30135;47.866;-4.222;2023-04-03T03:31:26;10.90;79.10
44431;DHT22;30135;47.866;-4.222;2023-04-03T03:33:52;10.80;79.00
44431;DHT22;30135;47.866;-4.222;2023-04-03T03:36:18;10.80;79.00
44431;DHT22;30135;47.866;-4.222;2023-04-03T03:38:44;10.80;78.90
44431;DHT22;30135;47.866;-4.222;2023-04-03T03:41:10;10.80;78.90
44431;DHT22;30135;47.866;-4.222;2023-04-03T03:43:36;10.90;79.10
44431;DHT22;30135;47.866;-4.222;2023-04-03T03:46:03;10.80;79.00
44431;DHT22;30135;47.866;-4.222;2023-04-03T03:48:29;10.80;78.90
44431;DHT22;30135;47.866;-4.222;2023-04-03T03:50:55;10.80;78.90
44431;DHT22;30135;47.866;-4.222;2023-04-03T03:53:21;10.80;78.80
44431;DHT22;30135;47.866;-4.222;2023-04-03T03:55:47;10.80;79.00
44431;DHT22;30135;47.866;-4.222;2023-04-03T03:58:13;10.70;79.00
44431;DHT22;30135;47.866;-4.222;2023-04-03T04:00:39;10.70;79.00
44431;DHT22;30135;47.866;-4.222;2023-04-03T04:03:05;10.70;79.10
44431;DHT22;30135;47.866;-4.222;2023-04-03T04:05:31;10.70;79.00
44431;DHT22;30135;47.866;-4.222;2023-04-03T04:07:57;10.70;79.00
44431;DHT22;30135;47.866;-4.222;2023-04-03T04:10:23;10.70;79.10
44431;DHT22;30135;47.866;-4.222;2023-04-03T04:12:49;10.70;79.20
44431;DHT22;30135;47.866;-4.222;2023-04-03T04:15:16;10.70;80.00
44431;DHT22;30135;47.866;-4.222;2023-04-03T04:17:43;10.60;79.30
44431;DHT22;30135;47.866;-4.222;2023-04-03T04:20:09;10.60;79.30
44431;DHT22;30135;47.866;-4.222;2023-04-03T04:22:42;10.60;79.30
44431;DHT22;30135;47.866;-4.222;2023-04-03T04:25:08;10.60;79.40
44431;DHT22;30135;47.866;-4.222;2023-04-03T04:27:34;10.60;79.60
44431;DHT22;30135;47.866;-4.222;2023-04-03T04:30:00;10.70;79.70
44431;DHT22;30135;47.866;-4.222;2023-04-03T04:32:26;10.60;79.60
44431;DHT22;30135;47.866;-4.222;2023-04-03T04:34:52;10.60;79.50
44431;DHT22;30135;47.866;-4.222;2023-04-03T04:37:18;10.60;79.60
44431;DHT22;30135;47.866;-4.222;2023-04-03T04:39:44;10.60;79.60
44431;DHT22;30135;47.866;-4.222;2023-04-03T04:42:10;10.60;79.60
44431;DHT22;30135;47.866;-4.222;2023-04-03T04:44:39;10.50;79.70
44431;DHT22;30135;47.866;-4.222;2023-04-03T04:47:05;10.50;79.70
44431;DHT22;30135;47.866;-4.222;2023-04-03T04:49:31;10.50;79.80
44431;DHT22;30135;47.866;-4.222;2023-04-03T04:51:57;10.50;80.00
44431;DHT22;30135;47.866;-4.222;2023-04-03T04:54:23;10.50;80.00
44431;DHT22;30135;47.866;-4.222;2023-04-03T04:56:49;10.40;80.00
44431;DHT22;30135;47.866;-4.222;2023-04-03T04:59:15;10.40;80.20
44431;DHT22;30135;47.866;-4.222;2023-04-03T05:01:41;10.40;80.20
44431;DHT22;30135;47.866;-4.222;2023-04-03T05:04:07;10.40;80.20
44431;DHT22;30135;47.866;-4.222;2023-04-03T05:06:33;10.30;80.30
44431;DHT22;30135;47.866;-4.222;2023-04-03T05:09:00;10.30;80.20
44431;DHT22;30135;47.866;-4.222;2023-04-03T05:11:26;10.30;80.40
44431;DHT22;30135;47.866;-4.222;2023-04-03T05:13:53;10.30;80.40
44431;DHT22;30135;47.866;-4.222;2023-04-03T05:16:19;10.20;80.40
44431;DHT22;30135;47.866;-4.222;2023-04-03T05:18:45;10.20;80.50
44431;DHT22;30135;47.866;-4.222;2023-04-03T05:21:11;10.20;80.70
44431;DHT22;30135;47.866;-4.222;2023-04-03T05:23:37;10.20;80.90
44431;DHT22;30135;47.866;-4.222;2023-04-03T05:26:03;10.10;80.90
44431;DHT22;30135;47.866;-4.222;2023-04-03T05:28:29;10.10;81.00
44431;DHT22;30135;47.866;-4.222;2023-04-03T05:30:57;10.10;81.90
44431;DHT22;30135;47.866;-4.222;2023-04-03T05:33:24;10.00;81.20
44431;DHT22;30135;47.866;-4.222;2023-04-03T05:35:52;10.00;81.30
44431;DHT22;30135;47.866;-4.222;2023-04-03T05:38:18;10.00;81.40
44431;DHT22;30135;47.866;-4.222;2023-04-03T05:40:45;10.00;81.50
44431;DHT22;30135;47.866;-4.222;2023-04-03T05:43:12;10.00;81.60
44431;DHT22;30135;47.866;-4.222;2023-04-03T05:45:38;9.90;81.60
44431;DHT22;30135;47.866;-4.222;2023-04-03T05:48:11;9.90;81.70
44431;DHT22;30135;47.866;-4.222;2023-04-03T05:50:38;9.90;81.80
44431;DHT22;30135;47.866;-4.222;2023-04-03T05:53:09;9.90;81.80
44431;DHT22;30135;47.866;-4.222;2023-04-03T05:55:51;9.80;81.80
44431;DHT22;30135;47.866;-4.222;2023-04-03T05:58:16;9.80;81.90
44431;DHT22;30135;47.866;-4.222;2023-04-03T06:00:42;9.80;82.00
44431;DHT22;30135;47.866;-4.222;2023-04-03T06:03:09;9.80;82.10
44431;DHT22;30135;47.866;-4.222;2023-04-03T06:05:35;9.80;82.20
44431;DHT22;30135;47.866;-4.222;2023-04-03T06:08:02;9.70;82.20
44431;DHT22;30135;47.866;-4.222;2023-04-03T06:10:29;9.70;82.10
44431;DHT22;30135;47.866;-4.222;2023-04-03T06:12:55;9.70;82.30
44431;DHT22;30135;47.866;-4.222;2023-04-03T06:15:21;9.70;82.30
44431;DHT22;30135;47.866;-4.222;2023-04-03T06:17:47;9.70;82.50
44431;DHT22;30135;47.866;-4.222;2023-04-03T06:20:14;9.60;82.50
44431;DHT22;30135;47.866;-4.222;2023-04-03T06:22:40;9.60;82.60
44431;DHT22;30135;47.866;-4.222;2023-04-03T06:25:07;9.60;82.70
44431;DHT22;30135;47.866;-4.222;2023-04-03T06:27:34;9.60;82.80
44431;DHT22;30135;47.866;-4.222;2023-04-03T06:30:01;9.60;82.80
44431;DHT22;30135;47.866;-4.222;2023-04-03T06:32:27;9.60;82.90
44431;DHT22;30135;47.866;-4.222;2023-04-03T06:34:53;9.50;82.90
44431;DHT22;30135;47.866;-4.222;2023-04-03T06:37:22;9.50;82.90
44431;DHT22;30135;47.866;-4.222;2023-04-03T06:39:52;9.50;82.90
44431;DHT22;30135;47.866;-4.222;2023-04-03T06:42:18;9.50;83.00
44431;DHT22;30135;47.866;-4.222;2023-04-03T06:44:44;9.50;83.00
44431;DHT22;30135;47.866;-4.222;2023-04-03T06:47:15;9.50;83.00
44431;DHT22;30135;47.866;-4.222;2023-04-03T06:49:42;9.50;83.00
44431;DHT22;30135;47.866;-4.222;2023-04-03T06:52:08;9.40;82.80
44431;DHT22;30135;47.866;-4.222;2023-04-03T06:54:38;9.40;82.80
44431;DHT22;30135;47.866;-4.222;2023-04-03T06:57:04;9.40;82.80
44431;DHT22;30135;47.866;-4.222;2023-04-03T06:59:30;9.40;82.80
44431;DHT22;30135;47.866;-4.222;2023-04-03T07:01:57;9.40;82.80
44431;DHT22;30135;47.866;-4.222;2023-04-03T07:04:25;9.40;82.90
44431;DHT22;30135;47.866;-4.222;2023-04-03T07:06:51;9.40;82.70
44431;DHT22;30135;47.866;-4.222;2023-04-03T07:09:18;9.30;82.70
44431;DHT22;30135;47.866;-4.222;2023-04-03T07:11:44;9.30;82.80
44431;DHT22;30135;47.866;-4.222;2023-04-03T07:14:11;9.30;82.90
44431;DHT22;30135;47.866;-4.222;2023-04-03T07:16:37;9.40;82.90
44431;DHT22;30135;47.866;-4.222;2023-04-03T07:19:03;9.40;82.90
44431;DHT22;30135;47.866;-4.222;2023-04-03T07:21:29;9.40;82.70
44431;DHT22;30135;47.866;-4.222;2023-04-03T07:23:56;9.40;82.90
44431;DHT22;30135;47.866;-4.222;2023-04-03T07:26:22;9.40;82.70
44431;DHT22;30135;47.866;-4.222;2023-04-03T07:28:48;9.40;82.70
44431;DHT22;30135;47.866;-4.222;2023-04-03T07:31:16;9.40;82.60
44431;DHT22;30135;47.866;-4.222;2023-04-03T07:33:44;9.40;82.30
44431;DHT22;30135;47.866;-4.222;2023-04-03T07:36:16;9.40;82.10
44431;DHT22;30135;47.866;-4.222;2023-04-03T07:38:43;9.40;82.30
44431;DHT22;30135;47.866;-4.222;2023-04-03T07:41:16;9.40;82.30
44431;DHT22;30135;47.866;-4.222;2023-04-03T07:43:44;9.50;82.30
44431;DHT22;30135;47.866;-4.222;2023-04-03T07:46:11;9.40;81.80
44431;DHT22;30135;47.866;-4.222;2023-04-03T07:48:40;9.40;81.50
44431;DHT22;30135;47.866;-4.222;2023-04-03T07:51:06;9.40;81.40
44431;DHT22;30135;47.866;-4.222;2023-04-03T07:53:32;9.40;81.30
44431;DHT22;30135;47.866;-4.222;2023-04-03T07:55:59;9.40;81.30
44431;DHT22;30135;47.866;-4.222;2023-04-03T07:58:25;9.50;81.50
44431;DHT22;30135;47.866;-4.222;2023-04-03T08:00:52;9.50;81.20
44431;DHT22;30135;47.866;-4.222;2023-04-03T08:03:18;9.50;80.90
44431;DHT22;30135;47.866;-4.222;2023-04-03T08:05:47;9.50;81.00
44431;DHT22;30135;47.866;-4.222;2023-04-03T08:08:17;9.50;81.20
44431;DHT22;30135;47.866;-4.222;2023-04-03T08:10:49;9.50;81.90
44431;DHT22;30135;47.866;-4.222;2023-04-03T08:13:19;9.60;81.10
44431;DHT22;30135;47.866;-4.222;2023-04-03T08:15:46;9.60;80.70
44431;DHT22;30135;47.866;-4.222;2023-04-03T08:18:14;9.60;80.50
44431;DHT22;30135;47.866;-4.222;2023-04-03T08:20:41;9.60;80.10
44431;DHT22;30135;47.866;-4.222;2023-04-03T08:23:08;9.60;80.00
44431;DHT22;30135;47.866;-4.222;2023-04-03T08:25:38;9.60;79.90
44431;DHT22;30135;47.866;-4.222;2023-04-03T08:28:05;9.60;79.80
44431;DHT22;30135;47.866;-4.222;2023-04-03T08:30:31;9.60;79.70
44431;DHT22;30135;47.866;-4.222;2023-04-03T08:32:57;9.60;80.10
44431;DHT22;30135;47.866;-4.222;2023-04-03T08:35:23;9.70;80.70
44431;DHT22;30135;47.866;-4.222;2023-04-03T08:37:49;9.70;79.70
44431;DHT22;30135;47.866;-4.222;2023-04-03T08:40:16;9.70;79.80
44431;DHT22;30135;47.866;-4.222;2023-04-03T08:43:04;9.70;79.70
44431;DHT22;30135;47.866;-4.222;2023-04-03T08:45:42;9.70;79.50
44431;DHT22;30135;47.866;-4.222;2023-04-03T08:48:23;9.70;79.50
44431;DHT22;30135;47.866;-4.222;2023-04-03T08:51:15;9.80;79.40
44431;DHT22;30135;47.866;-4.222;2023-04-03T08:56:18;9.80;79.60
44431;DHT22;30135;47.866;-4.222;2023-04-03T08:59:05;9.90;79.50
44431;DHT22;30135;47.866;-4.222;2023-04-03T09:01:40;9.90;79.40
44431;DHT22;30135;47.866;-4.222;2023-04-03T09:04:15;10.00;79.30
44431;DHT22;30135;47.866;-4.222;2023-04-03T09:06:57;10.00;79.30
44431;DHT22;30135;47.866;-4.222;2023-04-03T09:09:35;10.00;78.70
44431;DHT22;30135;47.866;-4.222;2023-04-03T09:15:15;10.00;78.30
44431;DHT22;30135;47.866;-4.222;2023-04-03T09:28:42;10.30;79.00
44431;DHT22;30135;47.866;-4.222;2023-04-03T09:31:29;10.40;79.00
44431;DHT22;30135;47.866;-4.222;2023-04-03T09:34:05;10.40;78.10
44431;DHT22;30135;47.866;-4.222;2023-04-03T09:36:48;10.50;78.20
44431;DHT22;30135;47.866;-4.222;2023-04-03T09:39:26;10.50;78.10
44431;DHT22;30135;47.866;-4.222;2023-04-03T09:41:59;10.60;78.30
44431;DHT22;30135;47.866;-4.222;2023-04-03T09:46:55;10.70;78.30
44431;DHT22;30135;47.866;-4.222;2023-04-03T09:49:21;10.70;78.20
44431;DHT22;30135;47.866;-4.222;2023-04-03T09:51:47;10.80;77.70
44431;DHT22;30135;47.866;-4.222;2023-04-03T09:54:35;10.80;77.10
44431;DHT22;30135;47.866;-4.222;2023-04-03T09:57:12;10.80;77.20
44431;DHT22;30135;47.866;-4.222;2023-04-03T09:59:57;10.90;77.00
44431;DHT22;30135;47.866;-4.222;2023-04-03T10:02:30;10.90;76.50
44431;DHT22;30135;47.866;-4.222;2023-04-03T10:05:02;10.80;76.40
44431;DHT22;30135;47.866;-4.222;2023-04-03T10:07:35;10.80;76.60
44431;DHT22;30135;47.866;-4.222;2023-04-03T10:10:16;10.80;76.40
44431;DHT22;30135;47.866;-4.222;2023-04-03T10:12:45;10.90;76.50
44431;DHT22;30135;47.866;-4.222;2023-04-03T10:15:16;10.90;76.80
44431;DHT22;30135;47.866;-4.222;2023-04-03T10:18:00;11.00;76.70
44431;DHT22;30135;47.866;-4.222;2023-04-03T10:23:21;11.10;76.20
44431;DHT22;30135;47.866;-4.222;2023-04-03T10:26:08;11.10;75.60
44431;DHT22;30135;47.866;-4.222;2023-04-03T10:29:02;11.10;75.50
44431;DHT22;30135;47.866;-4.222;2023-04-03T10:35:44;11.10;75.50
44431;DHT22;30135;47.866;-4.222;2023-04-03T10:41:07;11.20;75.30
44431;DHT22;30135;47.866;-4.222;2023-04-03T10:46:45;11.30;75.70
44431;DHT22;30135;47.866;-4.222;2023-04-03T10:52:40;11.40;74.50
44431;DHT22;30135;47.866;-4.222;2023-04-03T10:55:43;11.50;75.30
44431;DHT22;30135;47.866;-4.222;2023-04-03T10:58:35;11.50;74.30
44431;DHT22;30135;47.866;-4.222;2023-04-03T11:01:23;11.60;74.50
44431;DHT22;30135;47.866;-4.222;2023-04-03T11:03:57;11.70;73.90
44431;DHT22;30135;47.866;-4.222;2023-04-03T11:06:26;11.70;74.30
44431;DHT22;30135;47.866;-4.222;2023-04-03T11:09:33;11.70;73.80
44431;DHT22;30135;47.866;-4.222;2023-04-03T11:12:42;11.80;73.40
44431;DHT22;30135;47.866;-4.222;2023-04-03T11:15:16;11.80;73.80
44431;DHT22;30135;47.866;-4.222;2023-04-03T11:17:54;11.90;73.50
44431;DHT22;30135;47.866;-4.222;2023-04-03T11:20:26;11.90;73.20
44431;DHT22;30135;47.866;-4.222;2023-04-03T11:25:33;12.00;73.00
44431;DHT22;30135;47.866;-4.222;2023-04-03T11:28:06;12.00;73.10
44431;DHT22;30135;47.866;-4.222;2023-04-03T11:36:18;12.20;72.90
44431;DHT22;30135;47.866;-4.222;2023-04-03T11:38:49;12.30;73.30
44431;DHT22;30135;47.866;-4.222;2023-04-03T11:41:28;12.30;72.90
44431;DHT22;30135;47.866;-4.222;2023-04-03T11:46:53;12.40;72.40
44431;DHT22;30135;47.866;-4.222;2023-04-03T11:49:52;12.50;72.70
44431;DHT22;30135;47.866;-4.222;2023-04-03T12:01:11;12.50;72.30
44431;DHT22;30135;47.866;-4.222;2023-04-03T12:29:55;13.00;71.00
44431;DHT22;30135;47.866;-4.222;2023-04-03T12:46:22;13.10;69.90
44431;DHT22;30135;47.866;-4.222;2023-04-03T12:48:57;13.20;70.00
44431;DHT22;30135;47.866;-4.222;2023-04-03T12:51:40;13.10;69.80
44431;DHT22;30135;47.866;-4.222;2023-04-03T12:54:22;13.20;69.70
44431;DHT22;30135;47.866;-4.222;2023-04-03T12:57:27;13.20;70.00
44431;DHT22;30135;47.866;-4.222;2023-04-03T12:59:53;13.20;69.60
44431;DHT22;30135;47.866;-4.222;2023-04-03T13:02:31;13.30;70.00
44431;DHT22;30135;47.866;-4.222;2023-04-03T13:05:09;13.30;69.90
44431;DHT22;30135;47.866;-4.222;2023-04-03T13:07:42;13.40;69.30
44431;DHT22;30135;47.866;-4.222;2023-04-03T13:12:55;13.40;69.10
44431;DHT22;30135;47.866;-4.222;2023-04-03T13:15:42;13.40;69.00
44431;DHT22;30135;47.866;-4.222;2023-04-03T13:18:34;13.40;68.30
44431;DHT22;30135;47.866;-4.222;2023-04-03T13:21:07;13.40;68.30
44431;DHT22;30135;47.866;-4.222;2023-04-03T13:23:39;13.30;68.40
44431;DHT22;30135;47.866;-4.222;2023-04-03T13:26:07;13.40;68.80
44431;DHT22;30135;47.866;-4.222;2023-04-03T13:28:34;13.40;68.60
44431;DHT22;30135;47.866;-4.222;2023-04-03T13:31:08;13.50;68.80
44431;DHT22;30135;47.866;-4.222;2023-04-03T13:34:06;13.50;67.90
44431;DHT22;30135;47.866;-4.222;2023-04-03T13:36:43;13.50;67.40
44431;DHT22;30135;47.866;-4.222;2023-04-03T13:41:46;13.40;67.30
44431;DHT22;30135;47.866;-4.222;2023-04-03T13:46:53;13.40;67.40
44431;DHT22;30135;47.866;-4.222;2023-04-03T13:49:42;13.30;67.30
44431;DHT22;30135;47.866;-4.222;2023-04-03T13:52:31;13.30;68.00
44431;DHT22;30135;47.866;-4.222;2023-04-03T13:55:31;13.40;67.90
44431;DHT22;30135;47.866;-4.222;2023-04-03T14:03:43;13.40;67.70
44431;DHT22;30135;47.866;-4.222;2023-04-03T14:06:15;13.40;67.50
44431;DHT22;30135;47.866;-4.222;2023-04-03T14:08:43;13.40;67.30
44431;DHT22;30135;47.866;-4.222;2023-04-03T14:11:27;13.40;67.60
44431;DHT22;30135;47.866;-4.222;2023-04-03T14:13:59;13.50;67.50
44431;DHT22;30135;47.866;-4.222;2023-04-03T14:16:32;13.50;67.70
44431;DHT22;30135;47.866;-4.222;2023-04-03T14:18:59;13.50;67.40
44431;DHT22;30135;47.866;-4.222;2023-04-03T14:21:25;13.50;67.20
44431;DHT22;30135;47.866;-4.222;2023-04-03T14:23:51;13.50;67.40
44431;DHT22;30135;47.866;-4.222;2023-04-03T14:26:20;13.50;67.40
44431;DHT22;30135;47.866;-4.222;2023-04-03T14:28:48;13.40;67.30
44431;DHT22;30135;47.866;-4.222;2023-04-03T14:31:17;13.40;66.80
44431;DHT22;30135;47.866;-4.222;2023-04-03T14:33:44;13.40;67.80
44431;DHT22;30135;47.866;-4.222;2023-04-03T14:36:13;13.40;67.60
44431;DHT22;30135;47.866;-4.222;2023-04-03T14:38:44;13.40;67.70
44431;DHT22;30135;47.866;-4.222;2023-04-03T14:41:14;13.50;67.90
44431;DHT22;30135;47.866;-4.222;2023-04-03T14:43:42;13.50;67.50
44431;DHT22;30135;47.866;-4.222;2023-04-03T14:46:17;13.50;67.80
44431;DHT22;30135;47.866;-4.222;2023-04-03T14:48:45;13.50;67.60
44431;DHT22;30135;47.866;-4.222;2023-04-03T14:51:13;13.60;67.50
44431;DHT22;30135;47.866;-4.222;2023-04-03T14:53:43;13.60;67.50
44431;DHT22;30135;47.866;-4.222;2023-04-03T14:56:25;13.60;67.50
44431;DHT22;30135;47.866;-4.222;2023-04-03T14:58:59;13.60;67.50
44431;DHT22;30135;47.866;-4.222;2023-04-03T15:01:27;13.60;67.60
44431;DHT22;30135;47.866;-4.222;2023-04-03T15:03:54;13.60;67.60
44431;DHT22;30135;47.866;-4.222;2023-04-03T15:06:24;13.70;67.70
44431;DHT22;30135;47.866;-4.222;2023-04-03T15:08:50;13.70;67.30
44431;DHT22;30135;47.866;-4.222;2023-04-03T15:11:16;13.70;67.30
44431;DHT22;30135;47.866;-4.222;2023-04-03T15:13:42;13.60;66.80
44431;DHT22;30135;47.866;-4.222;2023-04-03T15:16:19;13.60;67.00
44431;DHT22;30135;47.866;-4.222;2023-04-03T15:18:46;13.60;66.80
44431;DHT22;30135;47.866;-4.222;2023-04-03T15:21:13;13.60;67.10
44431;DHT22;30135;47.866;-4.222;2023-04-03T15:23:39;13.70;67.40
44431;DHT22;30135;47.866;-4.222;2023-04-03T15:26:06;13.70;67.30
44431;DHT22;30135;47.866;-4.222;2023-04-03T15:28:37;13.70;67.20
44431;DHT22;30135;47.866;-4.222;2023-04-03T15:31:06;13.70;67.10
44431;DHT22;30135;47.866;-4.222;2023-04-03T15:33:33;13.70;67.30
44431;DHT22;30135;47.866;-4.222;2023-04-03T15:36:01;13.80;67.20
44431;DHT22;30135;47.866;-4.222;2023-04-03T15:38:42;13.80;67.10
44431;DHT22;30135;47.866;-4.222;2023-04-03T15:41:14;13.90;67.10
44431;DHT22;30135;47.866;-4.222;2023-04-03T15:43:40;13.90;66.90
44431;DHT22;30135;47.866;-4.222;2023-04-03T15:46:06;13.90;66.70
44431;DHT22;30135;47.866;-4.222;2023-04-03T15:48:33;13.90;66.40
44431;DHT22;30135;47.866;-4.222;2023-04-03T15:51:00;13.90;66.50
44431;DHT22;30135;47.866;-4.222;2023-04-03T15:53:26;13.90;66.30
44431;DHT22;30135;47.866;-4.222;2023-04-03T15:55:52;13.80;66.30
44431;DHT22;30135;47.866;-4.222;2023-04-03T15:58:18;13.90;66.40
44431;DHT22;30135;47.866;-4.222;2023-04-03T16:00:44;13.90;66.10
44431;DHT22;30135;47.866;-4.222;2023-04-03T16:03:12;13.90;66.30
44431;DHT22;30135;47.866;-4.222;2023-04-03T16:05:41;13.90;66.60
44431;DHT22;30135;47.866;-4.222;2023-04-03T16:08:07;13.90;66.60
44431;DHT22;30135;47.866;-4.222;2023-04-03T16:10:35;13.90;66.30
44431;DHT22;30135;47.866;-4.222;2023-04-03T16:13:02;13.90;66.20
44431;DHT22;30135;47.866;-4.222;2023-04-03T16:15:29;13.80;66.20
44431;DHT22;30135;47.866;-4.222;2023-04-03T16:17:57;13.70;66.30
44431;DHT22;30135;47.866;-4.222;2023-04-03T16:20:24;13.70;66.50
44431;DHT22;30135;47.866;-4.222;2023-04-03T16:22:50;13.60;66.60
44431;DHT22;30135;47.866;-4.222;2023-04-03T16:25:17;13.60;66.40
44431;DHT22;30135;47.866;-4.222;2023-04-03T16:27:43;13.60;66.60
44431;DHT22;30135;47.866;-4.222;2023-04-03T16:30:16;13.60;66.70
44431;DHT22;30135;47.866;-4.222;2023-04-03T16:32:42;13.60;66.30
44431;DHT22;30135;47.866;-4.222;2023-04-03T16:35:10;13.50;66.40
44431;DHT22;30135;47.866;-4.222;2023-04-03T16:37:37;13.50;66.60
44431;DHT22;30135;47.866;-4.222;2023-04-03T16:40:05;13.50;66.80
44431;DHT22;30135;47.866;-4.222;2023-04-03T16:42:33;13.50;67.00
44431;DHT22;30135;47.866;-4.222;2023-04-03T16:44:59;13.50;67.10
44431;DHT22;30135;47.866;-4.222;2023-04-03T16:47:28;13.50;67.20
44431;DHT22;30135;47.866;-4.222;2023-04-03T16:49:54;13.50;67.10
44431;DHT22;30135;47.866;-4.222;2023-04-03T16:52:20;13.40;67.10
44431;DHT22;30135;47.866;-4.222;2023-04-03T16:54:46;13.40;67.40
44431;DHT22;30135;47.866;-4.222;2023-04-03T16:57:12;13.40;67.70
44431;DHT22;30135;47.866;-4.222;2023-04-03T16:59:38;13.40;67.70
44431;DHT22;30135;47.866;-4.222;2023-04-03T17:02:04;13.40;67.60
44431;DHT22;30135;47.866;-4.222;2023-04-03T17:04:30;13.40;67.80
44431;DHT22;30135;47.866;-4.222;2023-04-03T17:06:56;13.30;67.90
44431;DHT22;30135;47.866;-4.222;2023-04-03T17:09:22;13.30;68.10
44431;DHT22;30135;47.866;-4.222;2023-04-03T17:11:49;13.30;68.30
44431;DHT22;30135;47.866;-4.222;2023-04-03T17:14:15;13.30;68.50
44431;DHT22;30135;47.866;-4.222;2023-04-03T17:16:41;13.30;68.70
44431;DHT22;30135;47.866;-4.222;2023-04-03T17:19:07;13.30;68.40
44431;DHT22;30135;47.866;-4.222;2023-04-03T17:21:33;13.30;68.20
44431;DHT22;30135;47.866;-4.222;2023-04-03T17:24:03;13.20;68.00
44431;DHT22;30135;47.866;-4.222;2023-04-03T17:26:34;13.20;68.40
44431;DHT22;30135;47.866;-4.222;2023-04-03T17:29:02;13.20;68.50
44431;DHT22;30135;47.866;-4.222;2023-04-03T17:31:29;13.10;68.80
44431;DHT22;30135;47.866;-4.222;2023-04-03T17:33:55;13.10;68.70